Time,TemperatureF,DewpointF,PressureIn,WindDirection,WindDirectionDegrees,WindSpeedMPH,WindSpeedGustMPH,Humidity,HourlyPrecipIn,Conditions,Clouds,dailyrainin,SolarRadiationWatts/m^2,SoftwareType,DateUTC
2013-07-30 00:03:00,61.5,57.6,30.14,SSE,166,0.0,0.0,87,0.00,CLR,,0.00,0.0,WeatherDisplay:10.37,2013-07-30 05:03:00,
2013-07-30 00:08:00,61.2,57.6,30.14,SSE,166,0.0,0.0,88,0.00,CLR,,0.00,0.0,WeatherDisplay:10.37,2013-07-30 05:08:00,
2013-07-30 00:13:00,61.0,57.4,30.14,SSE,166,0.0,0.0,88,0.00,CLR,,0.00,0.0,WeatherDisplay:10.37,2013-07-30 05:13:00,
2013-07-30 00:18:00,60.9,57.3,30.14,SSE,166,0.0,0.0,88,0.00,CLR,,0.00,0.0,WeatherDisplay:10.37,2013-07-30 05:18:00,
2013-07-30 00:23:00,60.9,57.6,30.14,SSE,166,0.0,0.0,89,0.00,CLR,,0.00,0.0,WeatherDisplay:10.37,2013-07-30 05:23:00,
2013-07-30 00:28:00,60.7,57.4,30.14,SSE,166,0.0,0.0,89,0.00,CLR,,0.00,0.0,WeatherDisplay:10.37,2013-07-30 05:28:00,
2013-07-30 00:33:00,60.5,57.2,30.14,SSE,166,0.0,0.0,89,0.00,CLR,,0.00,0.0,WeatherDisplay:10.37,2013-07-30 05:33:00,
2013-07-30 00:38:00,60.4,57.1,30.14,SSE,166,0.0,0.0,89,0.00,CLR,,0.00,0.0,WeatherDisplay:10.37,2013-07-30 05:38:00,
2013-07-30 00:43:00,60.2,57.3,30.14,SSE,166,0.0,0.0,90,0.00,CLR,,0.00,0.0,WeatherDisplay:10.37,2013-07-30 05:43:00,
2013-07-30 00:48:00,60.1,57.2,30.14,SSE,166,0.0,0.0,90,0.00,CLR,,0.00,0.0,WeatherDisplay:10.37,2013-07-30 05:48:00,
2013-07-30 00:53:00,60.1,57.2,30.14,SSE,166,0.0,0.0,90,0.00,CLR,,0.00,0.0,WeatherDisplay:10.37,2013-07-30 05:53:00,
2013-07-30 00:58:00,59.9,57.0,30.14,SSE,166,0.0,0.0,90,0.00,CLR,,0.00,0.0,WeatherDisplay:10.37,2013-07-30 05:58:00,
2013-07-30 01:03:00,59.9,57.0,30.13,SSE,166,0.0,0.0,90,0.00,CLR,,0.00,0.0,WeatherDisplay:10.37,2013-07-30 06:03:00,
2013-07-30 01:08:00,59.8,56.9,30.13,SSE,166,0.0,0.0,90,0.00,CLR,,0.00,0.0,WeatherDisplay:10.37,2013-07-30 06:08:00,
2013-07-30 01:13:00,59.6,56.7,30.13,SSE,166,0.0,0.0,90,0.00,CLR,,0.00,0.0,WeatherDisplay:10.37,2013-07-30 06:13:00,
2013-07-30 01:18:00,59.6,57.0,30.13,SSE,166,0.0,0.0,91,0.00,CLR,,0.00,0.0,WeatherDisplay:10.37,2013-07-30 06:18:00,
2013-07-30 01:23:00,59.6,57.0,30.13,SSE,166,0.0,0.0,91,0.00,CLR,,0.00,0.0,WeatherDisplay:10.37,2013-07-30 06:23:00,
2013-07-30 01:28:00,59.8,57.2,30.13,SSE,166,0.0,0.0,91,0.00,CLR,,0.00,0.0,WeatherDisplay:10.37,2013-07-30 06:28:00,
2013-07-30 01:33:00,59.6,57.0,30.13,SSE,166,0.0,0.0,91,0.00,CLR,,0.00,0.0,WeatherDisplay:10.37,2013-07-30 06:33:00,
2013-07-30 01:38:00,59.6,57.0,30.13,SSE,166,0.0,0.0,91,0.00,CLR,,0.00,0.0,WeatherDisplay:10.37,2013-07-30 06:38:00,
2013-07-30 01:43:00,59.5,56.9,30.13,SSE,166,0.0,0.0,91,0.00,CLR,,0.00,0.0,WeatherDisplay:10.37,2013-07-30 06:43:00,
2013-07-30 01:48:00,59.3,56.7,30.13,SSE,166,0.0,0.0,91,0.00,CLR,,0.00,0.0,WeatherDisplay:10.37,2013-07-30 06:48:00,
2013-07-30 01:53:00,59.0,56.4,30.13,SSE,166,0.0,0.0,91,0.00,CLR,,0.00,0.0,WeatherDisplay:10.37,2013-07-30 06:53:00,
2013-07-30 01:58:00,58.9,56.6,30.13,SSE,166,0.0,0.0,92,0.00,CLR,,0.00,0.0,WeatherDisplay:10.37,2013-07-30 06:58:00,
2013-07-30 02:03:00,58.7,56.4,30.13,SSE,166,0.0,0.0,92,0.00,CLR,,0.00,0.0,WeatherDisplay:10.37,2013-07-30 07:03:00,
2013-07-30 02:08:00,58.7,56.7,30.13,SSE,166,0.0,0.0,93,0.00,CLR,,0.00,0.0,WeatherDisplay:10.37,2013-07-30 07:08:00,
2013-07-30 02:13:00,58.7,56.7,30.13,SSE,166,0.0,0.0,93,0.00,CLR,,0.00,0.0,WeatherDisplay:10.37,2013-07-30 07:13:00,
2013-07-30 02:18:00,58.6,56.6,30.13,SSE,166,0.0,0.0,93,0.00,CLR,,0.00,0.0,WeatherDisplay:10.37,2013-07-30 07:18:00,
2013-07-30 02:23:00,58.6,56.6,30.13,SSE,166,0.0,0.0,93,0.00,CLR,,0.00,0.0,WeatherDisplay:10.37,2013-07-30 07:23:00,
2013-07-30 02:28:00,58.6,56.6,30.13,SSE,166,0.0,0.0,93,0.00,CLR,,0.00,0.0,WeatherDisplay:10.37,2013-07-30 07:28:00,
2013-07-30 02:33:00,58.6,56.6,30.13,SSE,166,0.0,0.0,93,0.00,CLR,,0.00,0.0,WeatherDisplay:10.37,2013-07-30 07:33:00,
2013-07-30 02:38:00,58.6,56.6,30.13,SSE,166,0.0,0.0,93,0.00,CLR,,0.00,0.0,WeatherDisplay:10.37,2013-07-30 07:38:00,
2013-07-30 02:43:00,58.4,56.4,30.13,SSE,166,0.0,0.0,93,0.00,CLR,,0.00,0.0,WeatherDisplay:10.37,2013-07-30 07:43:00,
2013-07-30 02:48:00,58.4,56.4,30.13,SSE,166,0.0,0.0,93,0.00,CLR,,0.00,0.0,WeatherDisplay:10.37,2013-07-30 07:48:00,
2013-07-30 02:53:00,58.4,56.4,30.13,SSE,166,0.0,0.0,93,0.00,CLR,,0.00,0.0,WeatherDisplay:10.37,2013-07-30 07:53:00,
2013-07-30 02:58:00,58.6,56.6,30.13,SSE,166,0.0,0.0,93,0.00,CLR,,0.00,0.0,WeatherDisplay:10.37,2013-07-30 07:58:00,
2013-07-30 03:03:00,58.6,56.6,30.13,SSE,166,0.0,0.0,93,0.00,CLR,,0.00,0.0,WeatherDisplay:10.37,2013-07-30 08:03:00,
2013-07-30 03:08:00,58.4,56.4,30.13,SSE,166,0.0,0.0,93,0.00,CLR,,0.00,0.0,WeatherDisplay:10.37,2013-07-30 08:08:00,
2013-07-30 03:13:00,58.4,56.4,30.13,SSE,166,0.0,0.0,93,0.00,CLR,,0.00,0.0,WeatherDisplay:10.37,2013-07-30 08:13:00,
2013-07-30 03:18:00,58.4,56.4,30.12,SSE,166,0.0,0.0,93,0.00,CLR,,0.00,0.0,WeatherDisplay:10.37,2013-07-30 08:18:00,
2013-07-30 03:23:00,58.3,56.3,30.12,SSE,166,0.0,0.0,93,0.00,CLR,,0.00,0.0,WeatherDisplay:10.37,2013-07-30 08:23:00,
2013-07-30 03:28:00,58.3,56.3,30.12,SSE,166,0.0,0.0,93,0.00,CLR,,0.00,0.0,WeatherDisplay:10.37,2013-07-30 08:28:00,
2013-07-30 03:33:00,58.3,56.3,30.12,SSE,166,0.0,0.0,93,0.00,CLR,,0.00,0.0,WeatherDisplay:10.37,2013-07-30 08:33:00,
2013-07-30 03:38:00,58.3,56.3,30.12,SSE,166,0.0,0.0,93,0.00,CLR,,0.00,0.0,WeatherDisplay:10.37,2013-07-30 08:38:00,
2013-07-30 03:43:00,58.1,56.1,30.12,SSE,166,0.0,0.0,93,0.00,CLR,,0.00,0.0,WeatherDisplay:10.37,2013-07-30 08:43:00,
2013-07-30 03:48:00,58.1,56.1,30.13,SSE,166,0.0,0.0,93,0.00,CLR,,0.00,0.0,WeatherDisplay:10.37,2013-07-30 08:48:00,
2013-07-30 03:53:00,58.1,56.1,30.13,SSE,166,0.0,0.0,93,0.00,CLR,,0.00,0.0,WeatherDisplay:10.37,2013-07-30 08:53:00,
2013-07-30 03:58:00,58.1,56.1,30.13,SSE,166,0.0,0.0,93,0.00,CLR,,0.00,0.0,WeatherDisplay:10.37,2013-07-30 08:58:00,
2013-07-30 04:03:00,58.1,56.4,30.13,SSE,166,0.0,0.0,94,0.00,CLR,,0.00,0.0,WeatherDisplay:10.37,2013-07-30 09:03:00,
2013-07-30 04:08:00,58.3,56.6,30.13,SSE,166,0.0,0.0,94,0.00,CLR,,0.00,0.0,WeatherDisplay:10.37,2013-07-30 09:08:00,
2013-07-30 04:13:00,58.4,56.7,30.13,SSE,166,0.0,0.0,94,0.00,CLR,,0.00,0.0,WeatherDisplay:10.37,2013-07-30 09:13:00,
2013-07-30 04:18:00,58.4,56.7,30.12,SSE,166,0.0,0.0,94,0.00,CLR,,0.00,0.0,WeatherDisplay:10.37,2013-07-30 09:18:00,
2013-07-30 04:23:00,58.4,56.7,30.12,SSE,166,0.0,0.0,94,0.00,CLR,,0.00,0.0,WeatherDisplay:10.37,2013-07-30 09:23:00,
2013-07-30 04:28:00,58.4,56.4,30.12,SSE,166,0.0,0.0,93,0.00,CLR,,0.00,0.0,WeatherDisplay:10.37,2013-07-30 09:28:00,
2013-07-30 04:33:00,58.4,56.4,30.12,SSE,166,0.0,0.0,93,0.00,CLR,,0.00,0.0,WeatherDisplay:10.37,2013-07-30 09:33:00,
2013-07-30 04:38:00,58.4,56.4,30.12,SSE,166,0.0,0.0,93,0.00,CLR,,0.00,0.0,WeatherDisplay:10.37,2013-07-30 09:38:00,
2013-07-30 04:43:00,58.4,56.4,30.12,SSE,166,0.0,0.0,93,0.00,CLR,,0.00,0.0,WeatherDisplay:10.37,2013-07-30 09:43:00,
2013-07-30 04:48:00,58.3,56.3,30.12,SSE,166,0.0,0.0,93,0.00,CLR,,0.00,0.0,WeatherDisplay:10.37,2013-07-30 09:48:00,
2013-07-30 04:53:00,58.3,56.3,30.12,SSE,166,0.0,0.0,93,0.00,CLR,,0.00,0.0,WeatherDisplay:10.37,2013-07-30 09:53:00,
2013-07-30 04:58:00,58.3,56.3,30.12,SSE,166,0.0,0.0,93,0.00,CLR,,0.00,0.0,WeatherDisplay:10.37,2013-07-30 09:58:00,
2013-07-30 05:03:00,58.1,56.4,30.12,SSE,166,0.0,0.0,94,0.00,CLR,,0.00,0.0,WeatherDisplay:10.37,2013-07-30 10:03:00,
2013-07-30 05:08:00,58.1,56.4,30.12,SSE,166,0.0,0.0,94,0.00,CLR,,0.00,0.0,WeatherDisplay:10.37,2013-07-30 10:08:00,
2013-07-30 05:13:00,58.1,56.4,30.12,SSE,166,0.0,0.0,94,0.00,CLR,,0.00,0.0,WeatherDisplay:10.37,2013-07-30 10:13:00,
2013-07-30 05:18:00,58.0,56.3,30.13,SSE,166,0.0,0.0,94,0.00,CLR,,0.00,0.0,WeatherDisplay:10.37,2013-07-30 10:18:00,
2013-07-30 05:23:00,58.0,56.3,30.13,SSE,166,0.0,0.0,94,0.00,CLR,,0.00,0.0,WeatherDisplay:10.37,2013-07-30 10:23:00,
2013-07-30 05:28:00,58.0,56.3,30.13,SSE,166,0.0,0.0,94,0.00,CLR,,0.00,0.0,WeatherDisplay:10.37,2013-07-30 10:28:00,
2013-07-30 05:33:00,58.0,56.3,30.13,SSE,166,0.0,0.0,94,0.00,CLR,,0.00,0.0,WeatherDisplay:10.37,2013-07-30 10:33:00,
2013-07-30 05:38:00,58.1,56.4,30.13,SSE,166,0.0,0.0,94,0.00,CLR,,0.00,0.0,WeatherDisplay:10.37,2013-07-30 10:38:00,
2013-07-30 05:43:00,58.3,56.6,30.13,SSE,166,0.0,0.0,94,0.00,CLR,,0.00,0.0,WeatherDisplay:10.37,2013-07-30 10:43:00,
2013-07-30 05:48:00,58.4,56.7,30.14,SSE,166,0.0,0.0,94,0.00,CLR,,0.00,0.0,WeatherDisplay:10.37,2013-07-30 10:48:00,
2013-07-30 05:53:00,58.4,56.7,30.14,SSE,166,0.0,0.0,94,0.00,CLR,,0.00,0.0,WeatherDisplay:10.37,2013-07-30 10:53:00,
2013-07-30 05:58:00,58.6,56.9,30.14,SSE,166,0.0,0.0,94,0.00,CLR,,0.00,0.0,WeatherDisplay:10.37,2013-07-30 10:58:00,
2013-07-30 06:03:00,58.7,57.0,30.14,SSE,166,0.0,0.0,94,0.00,CLR,,0.00,5.0,WeatherDisplay:10.37,2013-07-30 11:03:00,
2013-07-30 06:08:00,58.7,57.0,30.14,SSE,166,0.0,0.0,94,0.00,CLR,,0.00,7.0,WeatherDisplay:10.37,2013-07-30 11:08:00,
2013-07-30 06:13:00,58.7,57.0,30.14,SSE,166,0.0,0.0,94,0.00,CLR,,0.00,9.0,WeatherDisplay:10.37,2013-07-30 11:13:00,
2013-07-30 06:18:00,58.7,57.0,30.14,SSE,166,0.0,0.0,94,0.00,CLR,,0.00,12.0,WeatherDisplay:10.37,2013-07-30 11:18:00,
2013-07-30 06:23:00,58.7,57.0,30.14,SSE,166,0.0,0.0,94,0.00,CLR,,0.00,16.0,WeatherDisplay:10.37,2013-07-30 11:23:00,
2013-07-30 06:28:00,58.9,57.2,30.14,SSE,166,0.0,0.0,94,0.00,CLR,,0.00,18.0,WeatherDisplay:10.37,2013-07-30 11:28:00,
2013-07-30 06:33:00,58.9,57.2,30.14,SSE,166,0.0,0.0,94,0.00,CLR,,0.00,18.0,WeatherDisplay:10.37,2013-07-30 11:33:00,
2013-07-30 06:38:00,59.0,57.3,30.14,SSE,166,0.0,0.0,94,0.00,CLR,,0.00,19.0,WeatherDisplay:10.37,2013-07-30 11:38:00,
2013-07-30 06:44:00,59.2,57.5,30.14,SSE,166,0.0,0.0,94,0.00,CLR,,0.00,25.0,WeatherDisplay:10.37,2013-07-30 11:44:00,
2013-07-30 06:49:00,59.0,57.0,30.14,SSE,166,0.0,0.0,93,0.00,CLR,,0.00,28.0,WeatherDisplay:10.37,2013-07-30 11:49:00,
2013-07-30 06:54:00,59.2,57.2,30.14,SSE,166,0.0,0.0,93,0.00,CLR,,0.00,32.0,WeatherDisplay:10.37,2013-07-30 11:54:00,
2013-07-30 06:59:00,59.2,57.2,30.14,SSE,166,0.0,0.0,93,0.00,CLR,,0.00,33.0,WeatherDisplay:10.37,2013-07-30 11:59:00,
2013-07-30 07:04:00,59.3,57.3,30.14,SSE,166,0.0,0.0,93,0.00,CLR,,0.00,37.0,WeatherDisplay:10.37,2013-07-30 12:04:00,
2013-07-30 07:09:00,59.5,57.5,30.14,SSE,166,0.0,0.0,93,0.00,CLR,,0.00,42.0,WeatherDisplay:10.37,2013-07-30 12:09:00,
2013-07-30 07:14:00,59.6,57.6,30.14,SSE,166,0.0,0.0,93,0.00,CLR,,0.00,47.0,WeatherDisplay:10.37,2013-07-30 12:14:00,
2013-07-30 07:19:00,59.8,57.8,30.14,SSE,166,0.0,0.0,93,0.00,CLR,,0.00,51.0,WeatherDisplay:10.37,2013-07-30 12:19:00,
2013-07-30 07:24:00,59.8,57.8,30.14,SSE,166,0.0,0.0,93,0.00,CLR,,0.00,62.0,WeatherDisplay:10.37,2013-07-30 12:24:00,
2013-07-30 07:29:00,59.9,57.9,30.14,SSE,166,0.0,0.0,93,0.00,CLR,,0.00,67.0,WeatherDisplay:10.37,2013-07-30 12:29:00,
2013-07-30 07:34:00,60.1,58.1,30.15,SSE,166,0.0,0.0,93,0.00,CLR,,0.00,74.0,WeatherDisplay:10.37,2013-07-30 12:34:00,
2013-07-30 07:39:00,60.2,58.2,30.15,SSE,166,0.0,0.0,93,0.00,CLR,,0.00,76.0,WeatherDisplay:10.37,2013-07-30 12:39:00,
2013-07-30 07:44:00,60.4,58.4,30.15,SSE,166,0.0,0.0,93,0.00,CLR,,0.00,84.0,WeatherDisplay:10.37,2013-07-30 12:44:00,
2013-07-30 07:49:00,60.7,58.7,30.15,SSE,166,0.0,0.0,93,0.00,CLR,,0.00,91.0,WeatherDisplay:10.37,2013-07-30 12:49:00,
2013-07-30 07:54:00,60.7,58.4,30.15,SSE,166,0.0,0.0,92,0.00,CLR,,0.00,90.0,WeatherDisplay:10.37,2013-07-30 12:54:00,
2013-07-30 07:59:00,61.0,58.7,30.15,SSE,166,0.0,0.0,92,0.00,CLR,,0.00,95.0,WeatherDisplay:10.37,2013-07-30 12:59:00,
2013-07-30 08:04:00,61.0,58.7,30.15,SSE,166,0.0,0.0,92,0.00,CLR,,0.00,102.0,WeatherDisplay:10.37,2013-07-30 13:04:00,
2013-07-30 08:09:00,61.2,58.6,30.15,SSE,166,0.0,0.0,91,0.00,CLR,,0.00,107.0,WeatherDisplay:10.37,2013-07-30 13:09:00,
2013-07-30 08:14:00,61.2,58.6,30.15,SSE,166,0.0,0.0,91,0.00,CLR,,0.00,113.0,WeatherDisplay:10.37,2013-07-30 13:14:00,
2013-07-30 08:19:00,61.3,58.7,30.15,SSE,166,0.0,0.0,91,0.00,CLR,,0.00,121.0,WeatherDisplay:10.37,2013-07-30 13:19:00,
2013-07-30 08:24:00,61.6,58.6,30.15,SSE,166,0.0,0.0,90,0.00,CLR,,0.00,135.0,WeatherDisplay:10.37,2013-07-30 13:24:00,
2013-07-30 08:29:00,61.8,58.8,30.14,SSE,166,0.0,0.0,90,0.00,CLR,,0.00,142.0,WeatherDisplay:10.37,2013-07-30 13:29:00,
2013-07-30 08:34:00,62.0,59.0,30.14,SSE,166,0.0,0.0,90,0.00,CLR,,0.00,151.0,WeatherDisplay:10.37,2013-07-30 13:34:00,
2013-07-30 08:39:00,62.0,58.7,30.14,SSE,166,0.0,0.0,89,0.00,CLR,,0.00,163.0,WeatherDisplay:10.37,2013-07-30 13:39:00,
2013-07-30 08:44:00,62.3,59.0,30.14,SSE,166,0.0,0.0,89,0.00,CLR,,0.00,174.0,WeatherDisplay:10.37,2013-07-30 13:44:00,
2013-07-30 08:49:00,62.4,58.8,30.15,SSE,166,0.0,0.0,88,0.00,BKN,,0.00,193.0,WeatherDisplay:10.37,2013-07-30 13:49:00,
2013-07-30 08:54:00,62.6,59.0,30.15,SSE,166,0.0,0.0,88,0.00,BKN,,0.00,214.0,WeatherDisplay:10.37,2013-07-30 13:54:00,
2013-07-30 08:59:00,62.9,59.0,30.15,SSE,166,0.0,0.0,87,0.00,BKN,,0.00,236.0,WeatherDisplay:10.37,2013-07-30 13:59:00,
2013-07-30 09:04:00,63.1,58.8,30.14,SSE,166,0.0,0.0,86,0.00,BKN,,0.00,211.0,WeatherDisplay:10.37,2013-07-30 14:04:00,
2013-07-30 09:09:00,63.2,58.9,30.14,SSE,166,0.0,0.0,86,0.00,BKN,,0.00,204.0,WeatherDisplay:10.37,2013-07-30 14:09:00,
2013-07-30 09:14:00,63.7,59.4,30.14,SSE,166,0.0,0.0,86,0.00,BKN,,0.00,227.0,WeatherDisplay:10.37,2013-07-30 14:14:00,
2013-07-30 09:19:00,63.9,59.3,30.14,SSE,166,0.0,0.0,85,0.00,BKN,,0.00,227.0,WeatherDisplay:10.37,2013-07-30 14:19:00,
2013-07-30 09:24:00,64.2,59.6,30.14,SSE,166,0.0,0.0,85,0.00,BKN,,0.00,257.0,WeatherDisplay:10.37,2013-07-30 14:24:00,
2013-07-30 09:29:00,64.5,59.9,30.14,SSE,166,0.0,0.0,85,0.00,BKN,,0.00,260.0,WeatherDisplay:10.37,2013-07-30 14:29:00,
2013-07-30 09:34:00,64.7,59.8,30.14,SSE,166,0.0,0.0,84,0.00,BKN,,0.00,297.0,WeatherDisplay:10.37,2013-07-30 14:34:00,
2013-07-30 09:39:00,65.0,59.7,30.14,SSE,166,0.0,0.0,83,0.00,BKN,,0.00,315.0,WeatherDisplay:10.37,2013-07-30 14:39:00,
2013-07-30 09:44:00,65.3,59.7,30.14,SSE,166,0.0,0.0,82,0.00,BKN,,0.00,330.0,WeatherDisplay:10.37,2013-07-30 14:44:00,
2013-07-30 09:49:00,65.8,60.2,30.14,SSE,166,0.0,0.0,82,0.00,BKN,,0.00,462.0,WeatherDisplay:10.37,2013-07-30 14:49:00,
2013-07-30 09:54:00,66.0,60.0,30.14,SSE,166,0.0,0.0,81,0.00,SCT,,0.00,394.0,WeatherDisplay:10.37,2013-07-30 14:54:00,
2013-07-30 09:59:00,66.4,60.0,30.14,SSE,166,0.0,0.0,80,0.00,SCT,,0.00,422.0,WeatherDisplay:10.37,2013-07-30 14:59:00,
2013-07-30 10:04:00,67.1,60.7,30.14,SSE,166,0.0,0.0,80,0.00,SCT,,0.00,527.0,WeatherDisplay:10.37,2013-07-30 15:04:00,
2013-07-30 10:09:00,67.6,60.5,30.14,South,171,0.0,0.0,78,0.00,SCT,,0.00,555.0,WeatherDisplay:10.37,2013-07-30 15:09:00,
2013-07-30 10:14:00,67.8,60.7,30.14,South,171,0.0,0.0,78,0.00,SCT,,0.00,469.0,WeatherDisplay:10.37,2013-07-30 15:14:00,
2013-07-30 10:19:00,68.3,60.4,30.14,South,171,0.0,0.0,76,0.00,BKN,,0.00,388.0,WeatherDisplay:10.37,2013-07-30 15:19:00,
2013-07-30 10:24:00,68.6,60.4,30.14,South,171,0.0,1.1,75,0.00,BKN,,0.00,392.0,WeatherDisplay:10.37,2013-07-30 15:24:00,
2013-07-30 10:29:00,68.9,60.3,30.14,South,172,0.7,5.8,74,0.00,BKN,,0.00,431.0,WeatherDisplay:10.37,2013-07-30 15:29:00,
2013-07-30 10:34:00,69.6,60.6,30.14,South,172,0.0,0.0,73,0.00,BKN,,0.00,476.0,WeatherDisplay:10.37,2013-07-30 15:34:00,
2013-07-30 10:39:00,69.8,60.8,30.14,South,171,0.1,1.2,73,0.00,SCT,,0.00,617.0,WeatherDisplay:10.37,2013-07-30 15:39:00,
2013-07-30 10:44:00,70.3,60.4,30.14,South,171,0.1,1.1,71,0.00,SCT,,0.00,540.0,WeatherDisplay:10.37,2013-07-30 15:44:00,
2013-07-30 10:49:00,70.9,61.0,30.13,South,171,0.0,0.0,71,0.00,SCT,,0.00,512.0,WeatherDisplay:10.37,2013-07-30 15:49:00,
2013-07-30 10:54:00,71.3,61.0,30.13,South,171,0.1,1.2,70,0.00,SCT,,0.00,585.0,WeatherDisplay:10.37,2013-07-30 15:54:00,
2013-07-30 10:59:00,71.3,60.6,30.13,South,171,0.0,0.0,69,0.00,SCT,,0.00,552.0,WeatherDisplay:10.37,2013-07-30 15:59:00,
2013-07-30 11:04:00,71.8,61.1,30.12,SSE,167,0.0,0.0,69,0.00,BKN,,0.00,420.0,WeatherDisplay:10.37,2013-07-30 16:04:00,
2013-07-30 11:09:00,72.1,61.0,30.12,SSE,167,0.0,0.0,68,0.00,BKN,,0.00,406.0,WeatherDisplay:10.37,2013-07-30 16:09:00,
2013-07-30 11:14:00,72.3,61.6,30.12,East,94,0.1,3.5,69,0.00,BKN,,0.00,473.0,WeatherDisplay:10.37,2013-07-30 16:14:00,
2013-07-30 11:19:00,72.0,61.3,30.12,South,188,0.0,0.0,69,0.00,BKN,,0.00,520.0,WeatherDisplay:10.37,2013-07-30 16:19:00,
2013-07-30 11:24:00,72.8,61.6,30.12,South,182,0.0,0.0,68,0.00,BKN,,0.00,448.0,WeatherDisplay:10.37,2013-07-30 16:24:00,
2013-07-30 11:29:00,73.0,60.5,30.12,South,175,0.6,5.5,65,0.00,BKN,,0.00,448.0,WeatherDisplay:10.37,2013-07-30 16:29:00,
2013-07-30 11:34:00,73.5,60.6,30.12,South,175,0.1,1.1,64,0.00,BKN,,0.00,554.0,WeatherDisplay:10.37,2013-07-30 16:34:00,
2013-07-30 11:39:00,72.5,59.6,30.12,SSW,193,0.0,1.2,64,0.00,BKN,,0.00,232.0,WeatherDisplay:10.37,2013-07-30 16:39:00,
2013-07-30 11:44:00,72.5,61.3,30.12,South,172,0.1,2.3,68,0.00,BKN,,0.00,984.0,WeatherDisplay:10.37,2013-07-30 16:44:00,
2013-07-30 11:49:00,73.7,60.3,30.12,SSW,209,4.1,13.2,63,0.00,CLR,,0.00,988.0,WeatherDisplay:10.37,2013-07-30 16:49:00,
2013-07-30 11:54:00,73.5,60.1,30.12,SSE,167,1.3,6.6,63,0.00,FEW,,0.00,265.0,WeatherDisplay:10.37,2013-07-30 16:54:00,
2013-07-30 11:59:00,73.5,60.1,30.12,SSW,193,1.4,6.9,63,0.00,BKN,,0.00,292.0,WeatherDisplay:10.37,2013-07-30 16:59:00,
2013-07-30 12:04:00,73.0,60.5,30.12,WSW,246,1.4,5.8,65,0.00,BKN,,0.00,1027.0,WeatherDisplay:10.37,2013-07-30 17:04:00,
2013-07-30 12:09:00,73.2,60.7,30.12,SSW,194,0.1,3.3,65,0.00,CLR,,0.00,933.0,WeatherDisplay:10.37,2013-07-30 17:09:00,
2013-07-30 12:14:00,73.3,59.0,30.12,South,187,1.6,4.6,61,0.00,CLR,,0.00,1011.0,WeatherDisplay:10.37,2013-07-30 17:14:00,
2013-07-30 12:19:00,73.5,60.6,30.12,South,184,2.0,6.9,64,0.00,SCT,,0.00,1046.0,WeatherDisplay:10.37,2013-07-30 17:19:00,
2013-07-30 12:24:00,73.2,59.4,30.12,South,183,0.1,1.2,62,0.00,SCT,,0.00,283.0,WeatherDisplay:10.37,2013-07-30 17:24:00,
2013-07-30 12:29:00,72.8,59.0,30.12,SSW,196,1.9,5.5,62,0.00,BKN,,0.00,306.0,WeatherDisplay:10.37,2013-07-30 17:29:00,
2013-07-30 12:34:00,72.8,59.0,30.12,South,174,0.0,5.8,62,0.00,BKN,,0.00,457.0,WeatherDisplay:10.37,2013-07-30 17:34:00,
2013-07-30 12:39:00,73.5,58.3,30.12,South,190,1.2,5.8,59,0.00,SCT,,0.00,851.0,WeatherDisplay:10.37,2013-07-30 17:39:00,
2013-07-30 12:44:00,74.4,57.7,30.12,South,172,3.4,10.4,56,0.00,FEW,,0.00,949.0,WeatherDisplay:10.37,2013-07-30 17:44:00,
2013-07-30 12:49:00,74.7,58.0,30.12,South,188,2.5,6.9,56,0.00,CLR,,0.00,1120.0,WeatherDisplay:10.37,2013-07-30 17:49:00,
2013-07-30 12:54:00,74.4,58.7,30.12,South,181,3.1,6.9,58,0.00,FEW,,0.00,649.0,WeatherDisplay:10.37,2013-07-30 17:54:00,
2013-07-30 12:59:00,73.9,59.6,30.11,South,188,0.1,1.2,61,0.00,SCT,,0.00,626.0,WeatherDisplay:10.37,2013-07-30 17:59:00,
2013-07-30 13:04:00,74.4,58.7,30.11,SSE,162,0.1,1.2,58,0.00,BKN,,0.00,466.0,WeatherDisplay:10.37,2013-07-30 18:04:00,
2013-07-30 13:09:00,74.2,58.9,30.11,ESE,117,0.0,0.0,59,0.00,BKN,,0.00,526.0,WeatherDisplay:10.37,2013-07-30 18:09:00,
2013-07-30 13:14:00,74.4,59.1,30.11,South,180,0.0,0.0,59,0.00,BKN,,0.00,538.0,WeatherDisplay:10.37,2013-07-30 18:14:00,
2013-07-30 13:19:00,74.7,59.9,30.11,SSW,193,0.0,4.6,60,0.00,BKN,,0.00,587.0,WeatherDisplay:10.37,2013-07-30 18:19:00,
2013-07-30 13:24:00,75.1,59.8,30.11,East,80,0.7,4.6,59,0.00,BKN,,0.00,446.0,WeatherDisplay:10.37,2013-07-30 18:24:00,
2013-07-30 13:29:00,74.9,59.6,30.11,SSE,153,0.1,3.5,59,0.00,BKN,,0.00,388.0,WeatherDisplay:10.37,2013-07-30 18:29:00,
2013-07-30 13:34:00,74.9,59.6,30.11,SSE,148,0.0,0.0,59,0.00,BKN,,0.00,499.0,WeatherDisplay:10.37,2013-07-30 18:34:00,
2013-07-30 13:39:00,75.1,60.3,30.11,South,171,0.1,1.1,60,0.00,BKN,,0.00,401.0,WeatherDisplay:10.37,2013-07-30 18:39:00,
2013-07-30 13:44:00,75.1,59.8,30.11,SSE,165,0.0,0.0,59,0.00,BKN,,0.00,376.0,WeatherDisplay:10.37,2013-07-30 18:44:00,
2013-07-30 13:49:00,74.7,58.9,30.10,ENE,75,0.5,4.4,58,0.00,BKN,,0.00,406.0,WeatherDisplay:10.37,2013-07-30 18:49:00,
2013-07-30 13:54:00,74.9,60.1,30.10,SSE,158,0.0,1.2,60,0.00,BKN,,0.00,399.0,WeatherDisplay:10.37,2013-07-30 18:54:00,
2013-07-30 13:59:00,75.1,59.3,30.10,NE,52,0.0,1.2,58,0.00,BKN,,0.00,316.0,WeatherDisplay:10.37,2013-07-30 18:59:00,
2013-07-30 14:04:00,75.3,60.0,30.10,South,184,0.1,1.2,59,0.00,BKN,,0.00,575.0,WeatherDisplay:10.37,2013-07-30 19:04:00,
2013-07-30 14:05:00,75.4,59.6,30.10,South,184,0.1,1.2,58,0.00,BKN,,0.00,575.0,WeatherDisplay:10.37,2013-07-30 19:05:00,
2013-07-30 14:10:00,76.0,60.2,30.10,South,184,0.0,0.0,58,0.00,BKN,,0.00,369.0,WeatherDisplay:10.37,2013-07-30 19:10:00,
2013-07-30 14:15:00,76.1,60.2,30.09,South,186,0.8,5.8,58,0.00,BKN,,0.00,559.0,WeatherDisplay:10.37,2013-07-30 19:15:00,
2013-07-30 14:20:00,75.4,59.1,30.09,South,187,1.5,5.8,57,0.00,SCT,,0.00,963.0,WeatherDisplay:10.37,2013-07-30 19:20:00,
2013-07-30 14:25:00,75.8,59.5,30.09,NE,56,0.0,1.2,57,0.00,SCT,,0.00,345.0,WeatherDisplay:10.37,2013-07-30 19:25:00,
2013-07-30 14:30:00,76.1,59.8,30.09,North,360,0.0,0.0,57,0.00,BKN,,0.00,403.0,WeatherDisplay:10.37,2013-07-30 19:30:00,
2013-07-30 14:35:00,76.1,60.2,30.09,South,188,0.0,2.3,58,0.00,BKN,,0.00,434.0,WeatherDisplay:10.37,2013-07-30 19:35:00,
2013-07-30 14:40:00,76.3,59.4,30.09,South,188,0.0,1.1,56,0.00,BKN,,0.00,366.0,WeatherDisplay:10.37,2013-07-30 19:40:00,
2013-07-30 14:45:00,76.1,60.2,30.09,SSE,165,0.1,1.1,58,0.00,BKN,,0.00,424.0,WeatherDisplay:10.37,2013-07-30 19:45:00,
2013-07-30 14:50:00,76.3,60.4,30.09,East,86,0.0,1.2,58,0.00,BKN,,0.00,504.0,WeatherDisplay:10.37,2013-07-30 19:50:00,
2013-07-30 14:55:00,76.3,60.4,30.09,SSE,155,2.0,5.8,58,0.00,BKN,,0.00,371.0,WeatherDisplay:10.37,2013-07-30 19:55:00,
2013-07-30 15:00:00,76.0,60.2,30.08,South,186,0.0,0.0,58,0.00,BKN,,0.00,343.0,WeatherDisplay:10.37,2013-07-30 20:00:00,
2013-07-30 15:05:00,75.8,60.4,30.08,South,186,0.0,1.2,59,0.00,BKN,,0.00,520.0,WeatherDisplay:10.37,2013-07-30 20:05:00,
2013-07-30 15:10:00,76.0,60.2,30.08,SSE,160,0.3,4.6,58,0.00,SCT,,0.00,650.0,WeatherDisplay:10.37,2013-07-30 20:10:00,
2013-07-30 15:15:00,76.3,59.4,30.08,ENE,78,0.0,1.2,56,0.00,SCT,,0.00,833.0,WeatherDisplay:10.37,2013-07-30 20:15:00,
2013-07-30 15:20:00,76.7,60.3,30.08,SE,128,0.4,4.6,57,0.00,FEW,,0.00,752.0,WeatherDisplay:10.37,2013-07-30 20:20:00,
2013-07-30 15:25:00,76.8,58.9,30.08,South,175,0.0,1.2,54,0.00,FEW,,0.00,745.0,WeatherDisplay:10.37,2013-07-30 20:25:00,
2013-07-30 15:30:00,77.2,59.3,30.08,SSW,202,0.8,4.4,54,0.00,FEW,,0.00,724.0,WeatherDisplay:10.37,2013-07-30 20:30:00,
2013-07-30 15:35:00,77.2,58.7,30.08,South,185,3.1,9.9,53,0.00,SCT,,0.00,707.0,WeatherDisplay:10.37,2013-07-30 20:35:00,
2013-07-30 15:40:00,77.0,59.6,30.08,SE,142,0.0,0.0,55,0.00,SCT,,0.00,575.0,WeatherDisplay:10.37,2013-07-30 20:40:00,
2013-07-30 15:45:00,76.8,59.4,30.08,South,173,0.0,1.2,55,0.00,SCT,,0.00,724.0,WeatherDisplay:10.37,2013-07-30 20:45:00,
2013-07-30 15:50:00,77.2,59.8,30.08,SSE,165,0.0,1.2,55,0.00,FEW,,0.00,714.0,WeatherDisplay:10.37,2013-07-30 20:50:00,
2013-07-30 15:55:00,77.7,58.7,30.08,SSW,192,0.1,1.2,52,0.00,FEW,,0.00,765.0,WeatherDisplay:10.37,2013-07-30 20:55:00,
2013-07-30 16:00:00,77.7,59.7,30.08,South,189,3.4,7.7,54,0.00,CLR,,0.00,824.0,WeatherDisplay:10.37,2013-07-30 21:00:00,
2013-07-30 16:05:00,77.0,59.6,30.08,SSW,196,1.2,4.6,55,0.00,SCT,,0.00,362.0,WeatherDisplay:10.37,2013-07-30 21:05:00,
2013-07-30 16:10:00,76.7,60.3,30.08,South,171,0.0,1.2,57,0.00,BKN,,0.00,446.0,WeatherDisplay:10.37,2013-07-30 21:10:00,
2013-07-30 16:15:00,76.7,60.3,30.08,SSE,167,0.0,1.2,57,0.00,SCT,,0.00,580.0,WeatherDisplay:10.37,2013-07-30 21:15:00,
2013-07-30 16:20:00,76.7,59.3,30.08,South,182,3.0,9.9,55,0.00,SCT,,0.00,459.0,WeatherDisplay:10.37,2013-07-30 21:20:00,
2013-07-30 16:25:00,76.7,59.8,30.08,South,182,0.0,1.2,56,0.00,SCT,,0.00,309.0,WeatherDisplay:10.37,2013-07-30 21:25:00,
2013-07-30 16:30:00,76.7,60.3,30.08,South,175,0.0,1.2,57,0.00,BKN,,0.00,274.0,WeatherDisplay:10.37,2013-07-30 21:30:00,
2013-07-30 16:35:00,76.0,59.7,30.08,South,178,0.0,1.2,57,0.00,BKN,,0.00,255.0,WeatherDisplay:10.37,2013-07-30 21:35:00,
2013-07-30 16:40:00,75.6,59.8,30.08,SSW,196,0.0,0.0,58,0.00,BKN,,0.00,253.0,WeatherDisplay:10.37,2013-07-30 21:40:00,
2013-07-30 16:45:00,75.3,60.5,30.08,SW,216,1.8,9.9,60,0.00,BKN,,0.00,267.0,WeatherDisplay:10.37,2013-07-30 21:45:00,
2013-07-30 16:50:00,75.1,59.8,30.08,South,173,0.0,0.0,59,0.00,BKN,,0.00,304.0,WeatherDisplay:10.37,2013-07-30 21:50:00,
2013-07-30 16:55:00,74.9,59.6,30.08,SSE,161,0.3,1.2,59,0.00,BKN,,0.00,278.0,WeatherDisplay:10.37,2013-07-30 21:55:00,
2013-07-30 17:00:00,74.9,59.1,30.08,South,186,0.2,5.8,58,0.00,BKN,,0.00,297.0,WeatherDisplay:10.37,2013-07-30 22:00:00,
2013-07-30 17:05:00,74.7,59.4,30.08,South,172,0.8,8.1,59,0.00,SCT,,0.00,508.0,WeatherDisplay:10.37,2013-07-30 22:05:00,
2013-07-30 17:10:00,74.7,58.9,30.08,SSW,194,3.9,8.1,58,0.00,SCT,,0.00,478.0,WeatherDisplay:10.37,2013-07-30 22:10:00,
2013-07-30 17:15:00,74.7,59.4,30.08,South,188,0.0,1.2,59,0.00,SCT,,0.00,396.0,WeatherDisplay:10.37,2013-07-30 22:15:00,
2013-07-30 17:20:00,74.7,58.9,30.08,South,191,1.5,5.8,58,0.00,SCT,,0.00,339.0,WeatherDisplay:10.37,2013-07-30 22:20:00,
2013-07-30 17:25:00,74.9,59.1,30.08,SSE,162,0.0,0.0,58,0.00,SCT,,0.00,297.0,WeatherDisplay:10.37,2013-07-30 22:25:00,
2013-07-30 17:30:00,74.9,59.6,30.08,South,173,0.0,4.6,59,0.00,SCT,,0.00,304.0,WeatherDisplay:10.37,2013-07-30 22:30:00,
2013-07-30 17:35:00,74.9,60.1,30.08,South,176,0.0,1.2,60,0.00,SCT,,0.00,267.0,WeatherDisplay:10.37,2013-07-30 22:35:00,
2013-07-30 17:40:00,74.9,60.5,30.08,South,177,0.0,5.8,61,0.00,SCT,,0.00,294.0,WeatherDisplay:10.37,2013-07-30 22:40:00,
2013-07-30 17:45:00,74.7,60.8,30.08,South,177,0.0,1.2,62,0.00,SCT,,0.00,271.0,WeatherDisplay:10.37,2013-07-30 22:45:00,
2013-07-30 17:50:00,74.6,60.7,30.08,South,176,0.0,1.2,62,0.00,SCT,,0.00,218.0,WeatherDisplay:10.37,2013-07-30 22:50:00,
2013-07-30 17:55:00,74.2,61.2,30.08,South,176,0.0,0.0,64,0.00,SCT,,0.00,202.0,WeatherDisplay:10.37,2013-07-30 22:55:00,
2013-07-30 18:00:00,73.9,61.0,30.08,South,182,0.1,1.2,64,0.00,SCT,,0.00,202.0,WeatherDisplay:10.37,2013-07-30 23:00:00,
2013-07-30 18:05:00,73.7,60.8,30.08,South,182,1.3,4.4,64,0.00,SCT,,0.00,183.0,WeatherDisplay:10.37,2013-07-30 23:05:00,
2013-07-30 18:10:00,73.2,61.2,30.08,South,175,0.0,1.1,66,0.00,SCT,,0.00,132.0,WeatherDisplay:10.37,2013-07-30 23:10:00,
2013-07-30 18:15:00,73.0,61.4,30.07,South,180,0.0,2.3,67,0.00,SCT,,0.00,128.0,WeatherDisplay:10.37,2013-07-30 23:15:00,
2013-07-30 18:20:00,72.8,61.2,30.07,South,189,0.0,1.1,67,0.00,SCT,,0.00,132.0,WeatherDisplay:10.37,2013-07-30 23:20:00,
2013-07-30 18:25:00,72.7,61.1,30.07,South,189,0.0,0.0,67,0.00,SCT,,0.00,160.0,WeatherDisplay:10.37,2013-07-30 23:25:00,
2013-07-30 18:30:00,72.5,60.5,30.08,SSW,192,1.1,4.6,66,0.00,SCT,,0.00,197.0,WeatherDisplay:10.37,2013-07-30 23:30:00,
2013-07-30 18:35:00,72.7,59.8,30.08,SSW,196,0.7,6.9,64,0.00,SCT,,0.00,336.0,WeatherDisplay:10.37,2013-07-30 23:35:00,
2013-07-30 18:40:00,72.8,59.9,30.08,South,179,0.0,0.0,64,0.00,SCT,,0.00,160.0,WeatherDisplay:10.37,2013-07-30 23:40:00,
2013-07-30 18:45:00,72.8,60.3,30.08,South,179,1.1,4.6,65,0.00,SCT,,0.00,167.0,WeatherDisplay:10.37,2013-07-30 23:45:00,
2013-07-30 18:50:00,72.8,60.3,30.08,South,186,0.0,1.1,65,0.00,SCT,,0.00,185.0,WeatherDisplay:10.37,2013-07-30 23:50:00,
2013-07-30 18:55:00,72.5,60.5,30.08,South,189,0.0,2.3,66,0.00,SCT,,0.00,227.0,WeatherDisplay:10.37,2013-07-30 23:55:00,
2013-07-30 19:00:00,72.5,60.5,30.07,South,188,1.5,4.6,66,0.00,SCT,,0.00,95.0,WeatherDisplay:10.37,2013-07-31 00:00:00,
2013-07-30 19:05:00,72.1,60.5,30.07,South,188,0.3,2.3,67,0.00,SCT,,0.00,67.0,WeatherDisplay:10.37,2013-07-31 00:05:00,
2013-07-30 19:10:00,71.8,60.7,30.07,South,187,2.6,5.5,68,0.00,SCT,,0.00,74.0,WeatherDisplay:10.37,2013-07-31 00:10:00,
2013-07-30 19:15:00,71.6,60.9,30.07,South,184,0.1,1.1,69,0.00,SCT,,0.00,130.0,WeatherDisplay:10.37,2013-07-31 00:15:00,
2013-07-30 19:20:00,71.5,60.8,30.07,South,188,0.6,3.3,69,0.00,SCT,,0.00,128.0,WeatherDisplay:10.37,2013-07-31 00:20:00,
2013-07-30 19:25:00,71.5,60.8,30.07,South,182,0.0,0.0,69,0.00,SCT,,0.00,98.0,WeatherDisplay:10.37,2013-07-31 00:25:00,
2013-07-30 19:30:00,71.3,60.6,30.07,South,182,0.0,0.0,69,0.00,SCT,,0.00,91.0,WeatherDisplay:10.37,2013-07-31 00:30:00,
2013-07-30 19:35:00,71.3,61.0,30.07,South,186,1.6,7.7,70,0.00,SCT,,0.00,77.0,WeatherDisplay:10.37,2013-07-31 00:35:00,
2013-07-30 19:40:00,70.9,60.2,30.07,South,186,0.0,0.0,69,0.00,SCT,,0.00,62.0,WeatherDisplay:10.37,2013-07-31 00:40:00,
2013-07-30 19:45:00,70.8,60.5,30.07,South,188,0.0,0.0,70,0.00,SCT,,0.00,47.0,WeatherDisplay:10.37,2013-07-31 00:45:00,
2013-07-30 19:50:00,70.6,60.3,30.07,South,188,0.4,3.5,70,0.00,SCT,,0.00,35.0,WeatherDisplay:10.37,2013-07-31 00:50:00,
2013-07-30 19:55:00,70.4,60.1,30.07,South,188,0.0,0.0,70,0.00,SCT,,0.00,18.0,WeatherDisplay:10.37,2013-07-31 00:55:00,
2013-07-30 20:00:00,70.3,60.4,30.07,South,188,0.0,0.0,71,0.00,SCT,,0.00,18.0,WeatherDisplay:10.37,2013-07-31 01:00:00,
2013-07-30 20:05:00,70.1,60.3,30.07,South,188,0.0,1.2,71,0.00,SCT,,0.00,18.0,WeatherDisplay:10.37,2013-07-31 01:05:00,
2013-07-30 20:10:00,69.9,60.5,30.07,South,188,0.0,0.0,72,0.00,SCT,,0.00,9.0,WeatherDisplay:10.37,2013-07-31 01:10:00,
2013-07-30 20:15:00,69.9,60.5,30.06,South,188,0.0,0.0,72,0.00,SCT,,0.00,5.0,WeatherDisplay:10.37,2013-07-31 01:15:00,
2013-07-30 20:20:00,69.9,60.5,30.06,South,188,0.0,0.0,72,0.00,SCT,,0.00,0.0,WeatherDisplay:10.37,2013-07-31 01:20:00,
2013-07-30 20:25:00,69.8,60.4,30.06,South,188,0.0,0.0,72,0.00,SCT,,0.00,0.0,WeatherDisplay:10.37,2013-07-31 01:25:00,
2013-07-30 20:30:00,69.8,60.8,30.06,South,188,0.0,0.0,73,0.00,SCT,,0.00,0.0,WeatherDisplay:10.37,2013-07-31 01:30:00,
2013-07-30 20:35:00,69.6,60.6,30.06,South,188,0.0,0.0,73,0.00,SCT,,0.00,0.0,WeatherDisplay:10.37,2013-07-31 01:35:00,
2013-07-30 20:40:00,69.6,60.6,30.06,South,188,0.0,0.0,73,0.00,SCT,,0.00,0.0,WeatherDisplay:10.37,2013-07-31 01:40:00,
2013-07-30 20:45:00,69.6,60.9,30.06,South,188,0.0,0.0,74,0.00,SCT,,0.00,0.0,WeatherDisplay:10.37,2013-07-31 01:45:00,
2013-07-30 20:50:00,69.6,60.9,30.06,South,188,0.0,0.0,74,0.00,SCT,,0.00,0.0,WeatherDisplay:10.37,2013-07-31 01:50:00,
2013-07-30 20:55:00,69.6,60.9,30.06,South,188,0.0,0.0,74,0.00,SCT,,0.00,0.0,WeatherDisplay:10.37,2013-07-31 01:55:00,
2013-07-30 21:00:00,69.4,60.8,30.07,South,188,0.0,0.0,74,0.00,SCT,,0.00,0.0,WeatherDisplay:10.37,2013-07-31 02:00:00,
2013-07-30 21:05:00,69.4,60.8,30.07,South,188,0.0,0.0,74,0.00,SCT,,0.00,0.0,WeatherDisplay:10.37,2013-07-31 02:05:00,
2013-07-30 21:10:00,69.4,61.1,30.07,South,188,0.0,0.0,75,0.00,SCT,,0.00,0.0,WeatherDisplay:10.37,2013-07-31 02:10:00,
2013-07-30 21:15:00,69.4,61.1,30.08,South,188,0.0,0.0,75,0.00,SCT,,0.00,0.0,WeatherDisplay:10.37,2013-07-31 02:15:00,
2013-07-30 21:20:00,69.4,61.5,30.08,South,188,0.0,1.1,76,0.00,SCT,,0.00,0.0,WeatherDisplay:10.37,2013-07-31 02:20:00,
2013-07-30 21:25:00,69.4,61.5,30.08,South,188,0.0,0.0,76,0.00,SCT,,0.00,0.0,WeatherDisplay:10.37,2013-07-31 02:25:00,
2013-07-30 21:30:00,69.4,61.5,30.08,South,188,0.0,0.0,76,0.00,SCT,,0.00,0.0,WeatherDisplay:10.37,2013-07-31 02:30:00,
2013-07-30 21:35:00,69.4,61.5,30.08,South,188,0.0,0.0,76,0.00,SCT,,0.00,0.0,WeatherDisplay:10.37,2013-07-31 02:35:00,
2013-07-30 21:40:00,69.4,61.5,30.08,South,188,0.0,0.0,76,0.00,SCT,,0.00,0.0,WeatherDisplay:10.37,2013-07-31 02:40:00,
2013-07-30 21:45:00,69.4,61.5,30.09,South,188,0.0,0.0,76,0.00,SCT,,0.00,0.0,WeatherDisplay:10.37,2013-07-31 02:45:00,
2013-07-30 21:50:00,69.4,61.5,30.09,South,188,0.0,0.0,76,0.00,SCT,,0.00,0.0,WeatherDisplay:10.37,2013-07-31 02:50:00,
2013-07-30 21:55:00,69.3,61.4,30.09,South,188,0.0,0.0,76,0.00,SCT,,0.00,0.0,WeatherDisplay:10.37,2013-07-31 02:55:00,
2013-07-30 22:00:00,69.3,61.4,30.09,South,188,0.0,0.0,76,0.00,SCT,,0.00,0.0,WeatherDisplay:10.37,2013-07-31 03:00:00,
2013-07-30 22:05:00,69.3,61.8,30.09,South,188,0.0,0.0,77,0.00,SCT,,0.00,0.0,WeatherDisplay:10.37,2013-07-31 03:05:00,
2013-07-30 22:10:00,69.1,61.6,30.09,South,188,0.0,0.0,77,0.00,SCT,,0.00,0.0,WeatherDisplay:10.37,2013-07-31 03:10:00,
2013-07-30 22:15:00,69.1,61.6,30.08,South,188,0.0,0.0,77,0.00,SCT,,0.00,0.0,WeatherDisplay:10.37,2013-07-31 03:15:00,
2013-07-30 22:20:00,69.1,61.6,30.08,South,188,0.0,0.0,77,0.00,SCT,,0.00,0.0,WeatherDisplay:10.37,2013-07-31 03:20:00,
2013-07-30 22:25:00,68.9,61.8,30.08,South,188,0.0,0.0,78,0.00,SCT,,0.00,0.0,WeatherDisplay:10.37,2013-07-31 03:25:00,
2013-07-30 22:30:00,68.9,61.8,30.08,South,188,0.0,0.0,78,0.00,SCT,,0.00,0.0,WeatherDisplay:10.37,2013-07-31 03:30:00,
2013-07-30 22:35:00,68.9,62.1,30.08,South,188,0.0,0.0,79,0.00,SCT,,0.00,0.0,WeatherDisplay:10.37,2013-07-31 03:35:00,
2013-07-30 22:40:00,68.8,62.0,30.08,South,188,1.0,3.3,79,0.00,SCT,,0.00,0.0,WeatherDisplay:10.37,2013-07-31 03:40:00,
2013-07-30 22:45:00,68.8,62.0,30.09,South,188,0.0,0.0,79,0.00,SCT,,0.00,0.0,WeatherDisplay:10.37,2013-07-31 03:45:00,
2013-07-30 22:50:00,68.8,62.0,30.09,South,188,0.0,1.2,79,0.00,SCT,,0.00,0.0,WeatherDisplay:10.37,2013-07-31 03:50:00,
2013-07-30 22:55:00,68.8,62.0,30.09,South,188,0.0,0.0,79,0.00,SCT,,0.00,0.0,WeatherDisplay:10.37,2013-07-31 03:55:00,
2013-07-30 23:00:00,68.8,62.4,30.07,South,188,0.0,1.2,80,0.00,SCT,,0.00,0.0,WeatherDisplay:10.37,2013-07-31 04:00:00,
2013-07-30 23:01:00,68.8,62.4,30.07,South,188,0.0,1.2,80,0.00,SCT,,0.00,0.0,WeatherDisplay:10.37,2013-07-31 04:01:00,
2013-07-30 23:02:00,68.8,62.0,30.07,South,188,0.0,0.0,79,0.00,SCT,,0.00,0.0,WeatherDisplay:10.37,2013-07-31 04:02:00,
2013-07-30 23:07:00,68.6,61.8,30.07,South,188,0.0,2.3,79,0.00,SCT,,0.00,0.0,WeatherDisplay:10.37,2013-07-31 04:07:00,
2013-07-30 23:12:00,68.6,62.2,30.07,South,188,0.0,1.2,80,0.00,SCT,,0.00,0.0,WeatherDisplay:10.37,2013-07-31 04:12:00,
2013-07-30 23:17:00,68.4,62.0,30.06,South,188,0.9,3.5,80,0.00,SCT,,0.00,0.0,WeatherDisplay:10.37,2013-07-31 04:17:00,
2013-07-30 23:22:00,68.3,62.2,30.06,South,188,0.0,1.2,81,0.00,SCT,,0.00,0.0,WeatherDisplay:10.37,2013-07-31 04:22:00,
2013-07-30 23:27:00,68.1,62.0,30.06,South,188,0.0,0.0,81,0.00,SCT,,0.00,0.0,WeatherDisplay:10.37,2013-07-31 04:27:00,
2013-07-30 23:32:00,68.1,62.4,30.06,South,188,0.1,2.3,82,0.00,SCT,,0.00,0.0,WeatherDisplay:10.37,2013-07-31 04:32:00,
2013-07-30 23:37:00,68.1,62.4,30.06,South,188,0.0,0.0,82,0.00,SCT,,0.00,0.0,WeatherDisplay:10.37,2013-07-31 04:37:00,
2013-07-30 23:42:00,68.1,62.4,30.06,South,188,0.9,4.6,82,0.00,SCT,,0.00,0.0,WeatherDisplay:10.37,2013-07-31 04:42:00,
2013-07-30 23:47:00,68.1,62.4,30.06,South,188,0.0,0.0,82,0.00,SCT,,0.00,0.0,WeatherDisplay:10.37,2013-07-31 04:47:00,
2013-07-30 23:52:00,68.1,62.4,30.06,South,188,0.0,0.0,82,0.00,SCT,,0.00,0.0,WeatherDisplay:10.37,2013-07-31 04:52:00,
2013-07-30 23:57:00,68.1,62.4,30.06,South,188,0.0,0.0,82,0.00,SCT,,0.00,0.0,WeatherDisplay:10.37,2013-07-31 04:57:00,